Time;durP1;ratioP1;P1;durP2;ratioP2;P2;SDS_P1;SDS_P2;PMS_P1;PMS_P2;Temp;Humidity;BMP_temperature;BMP_pressure;BME280_temperature;BME280_humidity;BME280_pressure;Samples;Min_cycle;Max_cycle;Signal;HPM_P1;HPM_P2
2022/06/12 00:00:46;;;;;;;;;;;16.30;99.90;;;;;;5075495;28;19938;-80
2022/06/12 00:03:14;;;;;;;;;;;16.40;99.90;;;;;;5075530;28;19909;-80
2022/06/12 00:05:41;;;;;;;;;;;16.30;99.90;;;;;;5075385;28;19951;-79
2022/06/12 00:08:07;;;;;;;;;;;16.30;99.90;;;;;;5075419;28;19909;-79
2022/06/12 00:10:34;;;;;;;;;;;16.20;99.90;;;;;;5075411;28;19915;-80
2022/06/12 00:13:00;;;;;;;;;;;16.10;99.90;;;;;;5075282;28;20356;-79
2022/06/12 00:15:27;;;;;;;;;;;16.00;99.90;;;;;;5075284;28;19919;-79
2022/06/12 00:17:54;;;;;;;;;;;15.90;99.90;;;;;;5073957;28;19951;-80
2022/06/12 00:20:20;;;;;;;;;;;16.00;99.90;;;;;;5075139;28;20274;-79
2022/06/12 00:22:45;;;;;;;;;;;16.10;99.90;;;;;;5075156;28;19909;-79
2022/06/12 00:25:13;;;;;;;;;;;16.10;99.90;;;;;;5075083;28;20367;-79
2022/06/12 00:27:40;;;;;;;;;;;16.00;99.90;;;;;;5075049;28;19908;-79
2022/06/12 00:30:07;;;;;;;;;;;16.00;99.90;;;;;;5073495;28;20032;-80
2022/06/12 00:32:33;;;;;;;;;;;16.00;99.90;;;;;;5074939;28;19908;-79
2022/06/12 00:34:59;;;;;;;;;;;16.00;99.90;;;;;;5075022;28;19915;-79
2022/06/12 00:37:25;;;;;;;;;;;16.00;99.90;;;;;;5074595;28;19908;-79
2022/06/12 00:39:52;;;;;;;;;;;16.00;99.90;;;;;;5074949;28;19912;-79
2022/06/12 00:42:20;;;;;;;;;;;15.80;99.90;;;;;;5074747;28;19915;-79
2022/06/12 00:44:46;;;;;;;;;;;15.70;99.90;;;;;;5074690;28;19920;-79
2022/06/12 00:47:12;;;;;;;;;;;15.70;99.90;;;;;;5074633;28;19908;-79
2022/06/12 00:49:46;;;;;;;;;;;15.80;99.90;;;;;;5074592;28;19958;-79
2022/06/12 00:52:14;;;;;;;;;;;15.70;99.90;;;;;;5074577;28;19947;-80
2022/06/12 00:54:41;;;;;;;;;;;15.70;99.90;;;;;;5073162;28;19991;-79
2022/06/12 00:57:09;;;;;;;;;;;15.70;99.90;;;;;;5074438;28;19909;-79
2022/06/12 00:59:37;;;;;;;;;;;15.60;99.90;;;;;;5074727;28;19962;-79
2022/06/12 01:02:04;;;;;;;;;;;15.60;99.90;;;;;;5074337;28;19915;-79
2022/06/12 01:07:15;;;;;;;;;;;15.70;99.90;;;;;;5073957;28;19961;-79
2022/06/12 01:09:42;;;;;;;;;;;15.70;99.90;;;;;;5074418;28;19908;-79
2022/06/12 01:12:09;;;;;;;;;;;15.70;99.90;;;;;;5074110;28;19908;-79
2022/06/12 01:14:39;;;;;;;;;;;15.60;99.90;;;;;;5074099;28;19999;-79
2022/06/12 01:17:05;;;;;;;;;;;15.70;99.90;;;;;;5072828;28;19947;-79
2022/06/12 01:19:34;;;;;;;;;;;15.70;99.90;;;;;;5073957;28;19915;-80
2022/06/12 01:22:18;;;;;;;;;;;15.70;99.90;;;;;;5074013;28;19916;-79
2022/06/12 01:24:50;;;;;;;;;;;15.70;99.90;;;;;;5074134;28;19909;-79
2022/06/12 01:27:33;;;;;;;;;;;15.70;99.90;;;;;;5074001;28;19916;-79
2022/06/12 01:30:02;;;;;;;;;;;15.60;99.90;;;;;;5074174;28;20004;-79
2022/06/12 01:32:32;;;;;;;;;;;15.50;99.90;;;;;;5074000;28;19931;-79
2022/06/12 01:35:16;;;;;;;;;;;15.40;99.90;;;;;;5073873;28;19909;-79
2022/06/12 01:38:01;;;;;;;;;;;15.40;99.90;;;;;;5073607;28;20335;-79
2022/06/12 01:40:36;;;;;;;;;;;15.50;99.90;;;;;;5073807;28;19919;-79
2022/06/12 01:43:11;;;;;;;;;;;15.40;99.90;;;;;;5073227;28;20333;-79
2022/06/12 01:45:36;;;;;;;;;;;15.30;99.90;;;;;;5073794;28;20437;-79
2022/06/12 01:48:02;;;;;;;;;;;15.20;99.90;;;;;;5073889;28;19909;-79
2022/06/12 01:50:27;;;;;;;;;;;15.30;99.90;;;;;;5073760;28;19950;-80
2022/06/12 01:52:59;;;;;;;;;;;15.20;99.90;;;;;;5073686;28;19908;-79
2022/06/12 01:55:24;;;;;;;;;;;15.40;99.90;;;;;;5073876;28;19916;-79
2022/06/12 01:57:50;;;;;;;;;;;15.40;99.90;;;;;;5073590;28;19909;-79
2022/06/12 02:00:18;;;;;;;;;;;15.40;99.90;;;;;;5073532;28;19924;-79
2022/06/12 02:02:44;;;;;;;;;;;15.50;99.90;;;;;;5073663;28;19909;-79
2022/06/12 02:05:12;;;;;;;;;;;15.40;99.90;;;;;;5073565;28;20281;-79
2022/06/12 02:07:56;;;;;;;;;;;15.40;99.90;;;;;;5073521;28;20361;-79
2022/06/12 02:10:24;;;;;;;;;;;15.20;99.90;;;;;;5073479;28;19995;-79
2022/06/12 02:13:13;;;;;;;;;;;15.30;99.90;;;;;;5073523;28;20346;-79
2022/06/12 02:15:57;;;;;;;;;;;15.40;99.90;;;;;;5071987;28;19948;-79
2022/06/12 02:18:26;;;;;;;;;;;15.20;99.90;;;;;;5073404;28;19999;-79
2022/06/12 02:21:12;;;;;;;;;;;15.30;99.90;;;;;;5072007;28;19912;-79
2022/06/12 02:23:43;;;;;;;;;;;15.30;99.90;;;;;;5072853;28;20297;-79
2022/06/12 02:26:12;;;;;;;;;;;15.30;99.90;;;;;;5072008;28;20290;-79
2022/06/12 02:28:41;;;;;;;;;;;15.20;99.90;;;;;;5073269;28;20376;-79
2022/06/12 02:31:10;;;;;;;;;;;15.00;99.90;;;;;;5071986;28;19908;-79
2022/06/12 02:33:38;;;;;;;;;;;14.90;99.90;;;;;;5073412;28;20414;-79
2022/06/12 02:36:07;;;;;;;;;;;14.90;99.90;;;;;;5073219;28;19908;-79
2022/06/12 02:38:36;;;;;;;;;;;15.00;99.90;;;;;;5073100;28;20030;-79
2022/06/12 02:41:05;;;;;;;;;;;15.10;99.90;;;;;;5073073;28;20365;-79
2022/06/12 02:43:32;;;;;;;;;;;15.00;99.90;;;;;;5073207;28;20316;-79
2022/06/12 02:46:04;;;;;;;;;;;15.00;99.90;;;;;;5073220;28;19912;-79
2022/06/12 02:48:30;;;;;;;;;;;15.00;99.90;;;;;;5071839;28;20304;-79
2022/06/12 02:51:09;;;;;;;;;;;15.10;99.90;;;;;;5073118;28;19913;-79
2022/06/12 02:53:34;;;;;;;;;;;15.00;99.90;;;;;;5074302;28;20418;-79
2022/06/12 02:56:12;;;;;;;;;;;15.00;99.90;;;;;;5076875;28;19913;-79
2022/06/12 02:58:47;;;;;;;;;;;15.00;99.90;;;;;;5076823;28;20384;-79
2022/06/12 03:01:18;;;;;;;;;;;15.00;99.90;;;;;;5077071;28;19913;-79
2022/06/12 03:03:48;;;;;;;;;;;15.00;99.90;;;;;;5075367;28;19908;-79
2022/06/12 03:06:14;;;;;;;;;;;15.00;99.90;;;;;;5076762;28;19912;-79
2022/06/12 03:08:42;;;;;;;;;;;15.00;99.90;;;;;;5076467;28;19932;-79
2022/06/12 03:11:14;;;;;;;;;;;15.00;99.90;;;;;;5076395;28;20365;-79
2022/06/12 03:13:40;;;;;;;;;;;15.00;99.90;;;;;;5076555;28;20373;-79
2022/06/12 03:16:14;;;;;;;;;;;14.90;99.90;;;;;;5076359;28;20011;-79
2022/06/12 03:18:43;;;;;;;;;;;14.80;99.90;;;;;;5076277;28;19909;-79
2022/06/12 03:21:16;;;;;;;;;;;14.80;99.90;;;;;;5076482;28;19973;-79
2022/06/12 03:23:51;;;;;;;;;;;14.60;99.90;;;;;;5076372;28;19963;-79
2022/06/12 03:26:21;;;;;;;;;;;14.80;99.90;;;;;;5076170;28;19915;-79
2022/06/12 03:29:13;;;;;;;;;;;14.70;99.90;;;;;;5076922;28;20284;-79
2022/06/12 03:31:39;;;;;;;;;;;14.80;99.90;;;;;;5051635;28;19954;-79
2022/06/12 03:34:10;;;;;;;;;;;14.70;99.90;;;;;;5076215;28;19913;-79
2022/06/12 03:36:38;;;;;;;;;;;14.70;99.90;;;;;;5074563;28;19909;-79
2022/06/12 03:39:07;;;;;;;;;;;14.60;99.90;;;;;;5075663;28;19920;-79
2022/06/12 03:41:36;;;;;;;;;;;14.70;99.90;;;;;;5076054;28;19962;-79
2022/06/12 03:44:10;;;;;;;;;;;14.70;99.90;;;;;;5075980;28;19908;-79
2022/06/12 03:46:42;;;;;;;;;;;14.80;99.90;;;;;;5075918;28;20365;-79
2022/06/12 03:49:11;;;;;;;;;;;14.70;99.90;;;;;;5075999;28;19931;-79
2022/06/12 03:51:41;;;;;;;;;;;14.70;99.90;;;;;;5075861;28;19912;-79
2022/06/12 03:54:22;;;;;;;;;;;14.70;99.90;;;;;;5075828;28;19913;-79
2022/06/12 04:00:04;;;;;;;;;;;14.80;99.90;;;;;;5075096;28;19919;-79
2022/06/12 04:02:30;;;;;;;;;;;14.80;99.90;;;;;;5075706;28;19954;-79
2022/06/12 04:04:56;;;;;;;;;;;14.70;99.90;;;;;;5075098;28;20388;-79
2022/06/12 04:07:24;;;;;;;;;;;14.70;99.90;;;;;;5074171;28;20010;-79
2022/06/12 04:09:52;;;;;;;;;;;14.70;99.90;;;;;;5075449;28;19909;-79
2022/06/12 04:12:28;;;;;;;;;;;14.70;99.90;;;;;;5074028;28;19915;-79
2022/06/12 04:15:04;;;;;;;;;;;14.70;99.90;;;;;;5075875;28;19909;-79
2022/06/12 04:17:29;;;;;;;;;;;14.70;99.90;;;;;;5075574;28;19908;-79
2022/06/12 04:20:00;;;;;;;;;;;14.70;99.90;;;;;;5075186;28;19912;-79
2022/06/12 04:22:36;;;;;;;;;;;14.80;99.90;;;;;;5075338;28;19942;-79
2022/06/12 04:25:22;;;;;;;;;;;14.80;99.90;;;;;;5075524;28;19995;-79
2022/06/12 04:27:48;;;;;;;;;;;14.80;99.90;;;;;;5053862;28;19909;-79
2022/06/12 04:30:22;;;;;;;;;;;15.00;99.90;;;;;;5075045;28;19931;-79
2022/06/12 04:32:47;;;;;;;;;;;15.10;99.90;;;;;;5075285;28;19939;-79
2022/06/12 04:35:13;;;;;;;;;;;15.20;99.90;;;;;;5073596;28;20396;-79
2022/06/12 04:37:38;;;;;;;;;;;15.30;99.90;;;;;;5074703;28;19923;-79
2022/06/12 04:40:08;;;;;;;;;;;15.20;99.90;;;;;;5073425;28;20427;-79
2022/06/12 04:42:34;;;;;;;;;;;15.30;99.90;;;;;;5075146;28;19908;-79
2022/06/12 04:45:00;;;;;;;;;;;15.30;99.90;;;;;;5074819;28;19908;-79
2022/06/12 04:47:27;;;;;;;;;;;15.30;99.90;;;;;;5074802;28;20022;-79
2022/06/12 04:49:53;;;;;;;;;;;15.20;99.90;;;;;;5074503;28;20365;-79
2022/06/12 04:52:21;;;;;;;;;;;15.20;99.90;;;;;;5074824;28;19909;-79
2022/06/12 04:54:46;;;;;;;;;;;15.20;99.90;;;;;;5073227;28;19913;-79
2022/06/12 04:57:13;;;;;;;;;;;15.30;99.90;;;;;;5074440;28;20395;-79
2022/06/12 04:59:39;;;;;;;;;;;15.30;99.90;;;;;;5074462;28;19915;-79
2022/06/12 05:02:05;;;;;;;;;;;15.20;99.90;;;;;;5073123;28;19909;-79
2022/06/12 05:04:32;;;;;;;;;;;15.30;99.90;;;;;;5074478;28;19961;-79
2022/06/12 05:06:58;;;;;;;;;;;15.40;99.90;;;;;;5073008;28;19913;-79
2022/06/12 05:09:25;;;;;;;;;;;15.40;99.90;;;;;;5074262;28;20288;-79
2022/06/12 05:11:52;;;;;;;;;;;15.40;99.90;;;;;;5072875;28;19923;-79
2022/06/12 05:14:17;;;;;;;;;;;15.40;99.90;;;;;;5074307;28;19916;-79
2022/06/12 05:16:46;;;;;;;;;;;15.50;99.90;;;;;;5073661;28;19908;-79
2022/06/12 05:19:15;;;;;;;;;;;15.40;99.90;;;;;;5073695;28;19909;-79
2022/06/12 05:21:41;;;;;;;;;;;15.40;99.90;;;;;;5074349;28;19912;-79
2022/06/12 05:24:07;;;;;;;;;;;15.50;99.90;;;;;;5073969;28;19920;-79
2022/06/12 05:26:35;;;;;;;;;;;15.60;99.90;;;;;;5074036;28;20276;-79
2022/06/12 05:29:03;;;;;;;;;;;15.50;99.90;;;;;;5073940;28;20014;-79
2022/06/12 05:31:28;;;;;;;;;;;15.40;99.90;;;;;;5072711;28;19909;-79
2022/06/12 05:33:54;;;;;;;;;;;15.50;99.90;;;;;;5073911;28;19916;-79
2022/06/12 05:36:20;;;;;;;;;;;15.50;99.90;;;;;;5073889;28;19937;-79
2022/06/12 05:38:45;;;;;;;;;;;15.80;99.90;;;;;;5073616;28;20015;-79
2022/06/12 05:41:12;;;;;;;;;;;16.10;99.90;;;;;;5073786;28;19962;-79
2022/06/12 05:43:40;;;;;;;;;;;16.20;99.90;;;;;;5074016;28;19908;-79
2022/06/12 05:46:14;;;;;;;;;;;16.30;99.90;;;;;;5073761;28;19912;-79
2022/06/12 05:48:40;;;;;;;;;;;16.50;99.90;;;;;;5072409;28;20007;-79
2022/06/12 05:51:06;;;;;;;;;;;16.60;99.90;;;;;;5072422;28;19915;-79
2022/06/12 05:53:33;;;;;;;;;;;16.50;99.90;;;;;;5074100;28;19908;-79
2022/06/12 05:55:59;;;;;;;;;;;16.50;99.90;;;;;;5073846;28;19912;-79
2022/06/12 05:58:25;;;;;;;;;;;16.40;99.90;;;;;;5073614;28;19961;-79
2022/06/12 06:00:52;;;;;;;;;;;16.50;99.90;;;;;;5073505;28;19916;-80
2022/06/12 06:03:18;;;;;;;;;;;16.60;99.90;;;;;;5074079;28;19916;-79
2022/06/12 06:05:45;;;;;;;;;;;16.50;99.90;;;;;;5073708;28;20365;-79
2022/06/12 06:08:11;;;;;;;;;;;16.70;99.90;;;;;;5073660;28;19909;-79
2022/06/12 06:10:37;;;;;;;;;;;16.80;99.90;;;;;;5073487;28;19954;-79
2022/06/12 06:13:03;;;;;;;;;;;17.30;99.90;;;;;;5073471;28;19908;-79
2022/06/12 06:15:28;;;;;;;;;;;17.70;99.90;;;;;;5072236;28;19912;-79
2022/06/12 06:17:54;;;;;;;;;;;17.70;99.90;;;;;;5073497;28;19908;-80
2022/06/12 06:20:29;;;;;;;;;;;17.50;99.90;;;;;;5072049;28;19991;-79
2022/06/12 06:22:56;;;;;;;;;;;17.50;99.90;;;;;;5072085;28;19930;-80
2022/06/12 06:25:22;;;;;;;;;;;17.70;99.90;;;;;;5073423;28;19957;-80
2022/06/12 06:27:48;;;;;;;;;;;17.70;99.90;;;;;;5073388;28;19916;-80
2022/06/12 06:30:14;;;;;;;;;;;17.70;99.90;;;;;;5077086;28;19909;-80
2022/06/12 06:32:40;;;;;;;;;;;18.00;99.90;;;;;;5077513;28;19915;-80
2022/06/12 06:35:06;;;;;;;;;;;18.30;99.90;;;;;;5077270;28;20407;-80
2022/06/12 06:37:32;;;;;;;;;;;18.40;99.90;;;;;;5076997;28;20373;-80
2022/06/12 06:39:58;;;;;;;;;;;18.30;99.90;;;;;;5077142;28;19952;-79
2022/06/12 06:42:24;;;;;;;;;;;18.30;99.90;;;;;;5077066;28;19932;-80
2022/06/12 06:47:35;;;;;;;;;;;18.30;99.90;;;;;;5077134;28;19915;-80
2022/06/12 06:50:02;;;;;;;;;;;18.50;99.90;;;;;;5076956;28;19915;-80
2022/06/12 06:52:28;;;;;;;;;;;19.00;99.90;;;;;;5075632;28;19947;-80
2022/06/12 06:54:53;;;;;;;;;;;19.10;99.90;;;;;;5076834;28;19909;-79
2022/06/12 06:57:19;;;;;;;;;;;19.20;99.90;;;;;;5076871;28;19908;-80
2022/06/12 06:59:44;;;;;;;;;;;19.60;99.90;;;;;;5075407;28;20046;-80
2022/06/12 07:02:10;;;;;;;;;;;19.60;99.90;;;;;;5075669;28;19957;-80
2022/06/12 07:04:37;;;;;;;;;;;19.60;99.90;;;;;;5076850;28;19956;-80
2022/06/12 07:07:02;;;;;;;;;;;19.50;99.90;;;;;;5075580;28;19916;-80
2022/06/12 07:09:28;;;;;;;;;;;19.80;99.90;;;;;;5076680;28;19909;-80
2022/06/12 07:11:54;;;;;;;;;;;20.00;99.90;;;;;;5076471;28;20257;-80
2022/06/12 07:14:19;;;;;;;;;;;20.30;99.90;;;;;;5076584;28;19917;-80
2022/06/12 07:16:45;;;;;;;;;;;20.60;99.90;;;;;;5076653;28;19908;-80
2022/06/12 07:19:11;;;;;;;;;;;20.90;99.90;;;;;;5076392;28;19916;-80
2022/06/12 07:21:37;;;;;;;;;;;21.10;99.90;;;;;;5076382;28;19916;-80
2022/06/12 07:24:03;;;;;;;;;;;21.20;99.90;;;;;;5076346;28;19940;-80
2022/06/12 07:26:33;;;;;;;;;;;21.40;99.90;;;;;;5076308;28;19951;-80
2022/06/12 07:28:58;;;;;;;;;;;21.60;99.90;;;;;;5076241;28;19909;-80
2022/06/12 07:31:24;;;;;;;;;;;21.90;99.90;;;;;;5076228;28;19932;-80
2022/06/12 07:33:50;;;;;;;;;;;22.20;99.90;;;;;;5076367;28;19951;-80
2022/06/12 07:36:16;;;;;;;;;;;22.20;99.90;;;;;;5076084;28;19909;-80
2022/06/12 07:38:43;;;;;;;;;;;22.10;99.90;;;;;;5075873;28;20403;-80
2022/06/12 07:41:10;;;;;;;;;;;22.20;99.90;;;;;;5075260;28;20384;-80
2022/06/12 07:43:37;;;;;;;;;;;21.80;99.90;;;;;;5075975;28;20078;-80
2022/06/12 07:46:04;;;;;;;;;;;21.70;99.90;;;;;;5075914;28;19951;-81
2022/06/12 07:48:31;;;;;;;;;;;23.40;96.90;;;;;;5075857;28;20284;-80
2022/06/12 07:50:58;;;;;;;;;;;22.30;94.80;;;;;;5075833;28;19909;-81
2022/06/12 07:53:24;;;;;;;;;;;25.20;91.90;;;;;;5075819;28;19951;-81
2022/06/12 07:55:50;;;;;;;;;;;28.90;82.10;;;;;;5075913;28;20430;-81
2022/06/12 07:58:17;;;;;;;;;;;30.30;72.00;;;;;;5075916;28;19955;-79
2022/06/12 08:00:44;;;;;;;;;;;31.00;66.80;;;;;;5075693;28;19919;-81
2022/06/12 08:03:10;;;;;;;;;;;29.20;66.70;;;;;;5074286;28;20361;-81
2022/06/12 08:05:36;;;;;;;;;;;29.10;65.90;;;;;;5075561;28;20391;-80
2022/06/12 08:08:02;;;;;;;;;;;27.00;66.00;;;;;;5075702;28;19908;-81
2022/06/12 08:10:27;;;;;;;;;;;25.50;70.00;;;;;;5075555;28;19909;-81
2022/06/12 08:12:55;;;;;;;;;;;25.10;72.90;;;;;;5075412;28;19912;-81
2022/06/12 08:15:23;;;;;;;;;;;27.30;71.00;;;;;;5075774;28;20508;-81
2022/06/12 08:17:49;;;;;;;;;;;29.50;64.10;;;;;;5075316;28;19932;-81
2022/06/12 08:20:24;;;;;;;;;;;30.50;62.30;;;;;;5075316;28;20262;-81
2022/06/12 08:22:51;;;;;;;;;;;30.30;63.00;;;;;;5075365;28;19909;-80
2022/06/12 08:25:16;;;;;;;;;;;29.20;63.00;;;;;;5075145;28;20370;-82
2022/06/12 08:27:42;;;;;;;;;;;30.20;60.80;;;;;;5075118;28;20106;-81
2022/06/12 08:30:08;;;;;;;;;;;30.20;60.40;;;;;;5073527;28;19909;-81
2022/06/12 08:32:34;;;;;;;;;;;30.40;56.80;;;;;;5075015;28;20262;-82
2022/06/12 08:35:03;;;;;;;;;;;30.40;58.60;;;;;;5074865;28;19915;-82
2022/06/12 08:37:32;;;;;;;;;;;30.00;57.90;;;;;;5074672;28;19908;-80
2022/06/12 08:39:58;;;;;;;;;;;29.80;57.00;;;;;;5074769;28;20006;-81
2022/06/12 08:42:27;;;;;;;;;;;30.40;56.60;;;;;;5073537;28;19962;-80
2022/06/12 08:44:53;;;;;;;;;;;29.60;57.50;;;;;;5074993;28;19908;-81
2022/06/12 08:47:33;;;;;;;;;;;29.50;55.90;;;;;;5074885;28;20364;-80
2022/06/12 08:50:16;;;;;;;;;;;29.10;57.00;;;;;;5074498;28;19914;-82
2022/06/12 08:52:44;;;;;;;;;;;29.50;56.50;;;;;;5072910;28;20372;-81
2022/06/12 08:55:12;;;;;;;;;;;30.10;55.20;;;;;;5073179;28;20361;-81
2022/06/12 08:57:40;;;;;;;;;;;29.90;54.20;;;;;;5074499;28;19995;-81
2022/06/12 09:00:06;;;;;;;;;;;30.00;54.70;;;;;;5072968;28;19921;-81
2022/06/12 09:02:34;;;;;;;;;;;31.10;54.40;;;;;;5074420;28;19912;-81
2022/06/12 09:05:01;;;;;;;;;;;32.10;54.10;;;;;;5074304;28;19908;-81
2022/06/12 09:07:32;;;;;;;;;;;32.70;54.40;;;;;;5073074;28;19916;-79
2022/06/12 09:10:01;;;;;;;;;;;33.30;52.80;;;;;;5074322;28;19908;-78
2022/06/12 09:12:41;;;;;;;;;;;31.60;52.80;;;;;;5074219;28;19920;-78
2022/06/12 09:15:19;;;;;;;;;;;30.80;53.80;;;;;;5074600;28;20396;-78
2022/06/12 09:17:51;;;;;;;;;;;30.00;55.10;;;;;;5074436;28;19908;-78
2022/06/12 09:20:16;;;;;;;;;;;29.40;55.90;;;;;;5074083;28;19916;-79
2022/06/12 09:23:05;;;;;;;;;;;29.60;56.90;;;;;;5073977;28;19915;-81
2022/06/12 09:25:36;;;;;;;;;;;29.80;55.60;;;;;;5068297;28;20392;-81
2022/06/12 09:28:09;;;;;;;;;;;30.20;55.70;;;;;;5073975;28;19908;-81
2022/06/12 09:30:44;;;;;;;;;;;30.10;55.30;;;;;;5074219;28;19915;-81
2022/06/12 09:33:28;;;;;;;;;;;29.40;54.80;;;;;;5073980;28;19917;-80
2022/06/12 09:36:17;;;;;;;;;;;28.90;56.00;;;;;;5073848;28;20003;-81
2022/06/12 09:38:54;;;;;;;;;;;29.90;56.20;;;;;;5073800;28;19921;-81
2022/06/12 09:41:19;;;;;;;;;;;30.20;53.70;;;;;;5073851;28;20384;-80
2022/06/12 09:43:45;;;;;;;;;;;30.70;53.30;;;;;;5073728;28;19916;-81
2022/06/12 09:46:14;;;;;;;;;;;31.30;52.80;;;;;;5074501;28;19923;-78
2022/06/12 09:48:58;;;;;;;;;;;30.90;53.00;;;;;;5074991;28;19909;-78
2022/06/12 09:51:29;;;;;;;;;;;31.00;51.50;;;;;;5073999;28;19948;-79
2022/06/12 09:54:05;;;;;;;;;;;30.40;52.40;;;;;;5072211;28;19910;-81
2022/06/12 09:56:41;;;;;;;;;;;30.20;52.20;;;;;;5073970;28;19909;-81
2022/06/12 09:59:17;;;;;;;;;;;29.40;53.10;;;;;;5071997;28;19920;-81
2022/06/12 10:01:44;;;;;;;;;;;29.30;52.70;;;;;;5073394;28;19920;-81
2022/06/12 10:04:15;;;;;;;;;;;28.80;53.10;;;;;;5072967;28;19956;-80
2022/06/12 10:06:53;;;;;;;;;;;28.50;53.60;;;;;;5073957;28;19938;-81
2022/06/12 10:09:18;;;;;;;;;;;29.60;52.50;;;;;;5073659;28;19908;-81
2022/06/12 10:11:44;;;;;;;;;;;29.90;51.80;;;;;;5073472;28;19912;-81
2022/06/12 10:14:16;;;;;;;;;;;30.00;51.90;;;;;;5073544;28;19912;-80
2022/06/12 10:17:00;;;;;;;;;;;31.10;51.60;;;;;;5073686;28;19914;-81
2022/06/12 10:19:46;;;;;;;;;;;30.20;52.00;;;;;;5073348;28;20292;-81
2022/06/12 10:22:30;;;;;;;;;;;30.40;53.10;;;;;;5073350;28;19912;-81
2022/06/12 10:24:56;;;;;;;;;;;31.00;52.20;;;;;;5073328;28;19995;-81
2022/06/12 10:27:22;;;;;;;;;;;31.50;52.40;;;;;;5073313;28;19963;-80
2022/06/12 10:29:52;;;;;;;;;;;32.10;50.60;;;;;;5073358;28;19909;-80
2022/06/12 10:32:19;;;;;;;;;;;32.00;50.80;;;;;;5073432;28;19914;-81
2022/06/12 10:34:45;;;;;;;;;;;31.90;50.30;;;;;;5073248;28;20369;-81
2022/06/12 10:37:16;;;;;;;;;;;32.60;50.00;;;;;;5072988;28;19909;-81
2022/06/12 10:39:42;;;;;;;;;;;33.10;49.00;;;;;;5073319;28;19917;-78
2022/06/12 10:42:27;;;;;;;;;;;33.70;47.40;;;;;;5073803;28;19999;-79
2022/06/12 10:44:58;;;;;;;;;;;33.40;47.30;;;;;;5073309;28;19908;-79
2022/06/12 10:47:25;;;;;;;;;;;31.80;47.60;;;;;;5073204;28;19941;-80
2022/06/12 10:50:11;;;;;;;;;;;31.40;49.10;;;;;;5073133;28;19908;-81
2022/06/12 10:52:36;;;;;;;;;;;32.10;48.60;;;;;;5073136;28;19932;-80
2022/06/12 10:55:09;;;;;;;;;;;32.60;47.50;;;;;;5073186;28;19908;-80
2022/06/12 10:57:35;;;;;;;;;;;32.00;46.90;;;;;;5073074;28;19915;-80
2022/06/12 11:00:04;;;;;;;;;;;33.60;47.40;;;;;;5073170;28;20326;-81
2022/06/12 11:02:38;;;;;;;;;;;34.00;46.10;;;;;;5073184;28;19915;-81
2022/06/12 11:05:22;;;;;;;;;;;34.40;46.40;;;;;;5072957;28;19909;-79
2022/06/12 11:07:52;;;;;;;;;;;35.00;46.10;;;;;;5073001;28;19943;-80
2022/06/12 11:10:21;;;;;;;;;;;35.20;45.40;;;;;;5073364;28;20373;-80
2022/06/12 11:13:16;;;;;;;;;;;34.50;44.70;;;;;;5073017;28;19912;-81
2022/06/12 11:15:47;;;;;;;;;;;34.30;45.10;;;;;;5037081;28;20031;-82
2022/06/12 11:18:14;;;;;;;;;;;35.10;44.60;;;;;;5076429;28;20357;-81
2022/06/12 11:20:43;;;;;;;;;;;36.00;44.20;;;;;;5076552;28;19912;-80
2022/06/12 11:23:08;;;;;;;;;;;35.50;43.20;;;;;;5076350;28;19908;-81
2022/06/12 11:25:40;;;;;;;;;;;35.40;43.80;;;;;;5076406;28;19915;-80
2022/06/12 11:28:12;;;;;;;;;;;35.70;43.80;;;;;;5074972;28;19908;-80
2022/06/12 11:31:02;;;;;;;;;;;35.40;43.20;;;;;;5076208;28;19952;-80
2022/06/12 11:33:35;;;;;;;;;;;35.20;43.30;;;;;;5076509;28;19908;-82
2022/06/12 11:36:15;;;;;;;;;;;35.50;43.40;;;;;;5076458;28;19908;-80
2022/06/12 11:38:53;;;;;;;;;;;35.80;43.40;;;;;;5075936;28;19927;-81
2022/06/12 11:41:36;;;;;;;;;;;35.90;42.30;;;;;;5076183;28;20011;-81
2022/06/12 11:44:11;;;;;;;;;;;36.00;42.80;;;;;;5076119;28;19908;-81
2022/06/12 11:46:54;;;;;;;;;;;35.70;43.00;;;;;;5075926;28;20288;-80
2022/06/12 11:49:38;;;;;;;;;;;35.10;43.00;;;;;;5076047;28;20020;-81
2022/06/12 11:52:06;;;;;;;;;;;36.20;42.90;;;;;;5075867;28;19909;-79
2022/06/12 11:54:31;;;;;;;;;;;36.70;42.30;;;;;;5075772;28;19916;-81
2022/06/12 11:57:05;;;;;;;;;;;36.50;41.20;;;;;;5075735;28;19908;-81
2022/06/12 11:59:51;;;;;;;;;;;35.90;42.00;;;;;;5075895;28;19908;-81
2022/06/12 12:02:23;;;;;;;;;;;35.30;42.60;;;;;;5075180;28;19916;-80
2022/06/12 12:05:06;;;;;;;;;;;35.60;42.70;;;;;;5075589;28;20376;-79
2022/06/12 12:07:45;;;;;;;;;;;35.10;42.20;;;;;;5075500;28;19909;-80
2022/06/12 12:10:13;;;;;;;;;;;35.90;42.20;;;;;;5075609;28;19909;-81
2022/06/12 12:12:44;;;;;;;;;;;35.90;42.60;;;;;;5074046;28;19909;-82
2022/06/12 12:15:33;;;;;;;;;;;36.20;42.00;;;;;;5075750;28;20426;-80
2022/06/12 12:18:00;;;;;;;;;;;36.80;41.40;;;;;;5069641;28;19908;-80
2022/06/12 12:20:33;;;;;;;;;;;36.70;41.10;;;;;;5075243;28;19951;-81
2022/06/12 12:23:13;;;;;;;;;;;36.60;41.90;;;;;;5075243;28;20323;-80
2022/06/12 12:25:47;;;;;;;;;;;37.60;41.60;;;;;;5075388;28;19958;-80
2022/06/12 12:28:17;;;;;;;;;;;37.50;40.80;;;;;;5075042;28;19971;-82
2022/06/12 12:30:43;;;;;;;;;;;37.50;40.90;;;;;;5075064;28;19912;-80
2022/06/12 12:33:14;;;;;;;;;;;37.10;40.50;;;;;;5075181;28;20365;-81
2022/06/12 12:41:13;;;;;;;;;;;37.00;41.10;;;;;;5074787;28;20022;-81
2022/06/12 12:43:52;;;;;;;;;;;37.40;40.20;;;;;;5075017;28;19908;-81
2022/06/12 12:46:19;;;;;;;;;;;37.50;39.90;;;;;;5074779;28;19912;-81
2022/06/12 12:48:46;;;;;;;;;;;36.80;40.30;;;;;;5074682;28;19931;-81
2022/06/12 12:51:24;;;;;;;;;;;36.10;40.90;;;;;;5074836;28;20369;-80
2022/06/12 12:53:52;;;;;;;;;;;36.30;40.50;;;;;;5074574;28;19908;-80
2022/06/12 12:56:27;;;;;;;;;;;37.20;40.20;;;;;;5074581;28;19958;-81
2022/06/12 12:58:55;;;;;;;;;;;36.60;39.40;;;;;;5074752;28;19909;-80
2022/06/12 13:01:26;;;;;;;;;;;36.80;39.00;;;;;;5074315;28;19944;-81
2022/06/12 13:03:55;;;;;;;;;;;36.60;39.50;;;;;;5074343;28;19916;-80
2022/06/12 13:06:39;;;;;;;;;;;36.30;38.90;;;;;;5074251;28;20396;-81
2022/06/12 13:09:29;;;;;;;;;;;37.10;39.30;;;;;;5074453;28;19912;-80
2022/06/12 13:11:57;;;;;;;;;;;37.10;38.80;;;;;;5074394;28;19909;-81
2022/06/12 13:14:32;;;;;;;;;;;37.60;39.40;;;;;;5074191;28;19908;-81
2022/06/12 13:17:00;;;;;;;;;;;37.60;39.10;;;;;;5074231;28;19919;-82
2022/06/12 13:19:31;;;;;;;;;;;37.10;39.00;;;;;;5074181;28;19909;-81
2022/06/12 13:22:15;;;;;;;;;;;37.10;39.10;;;;;;5074133;28;19916;-81
2022/06/12 13:24:43;;;;;;;;;;;37.10;38.90;;;;;;5074527;28;19932;-82
2022/06/12 13:27:20;;;;;;;;;;;37.20;38.40;;;;;;5074196;28;20004;-80
2022/06/12 13:29:46;;;;;;;;;;;36.70;38.60;;;;;;5074061;28;19914;-81
2022/06/12 13:32:19;;;;;;;;;;;36.40;38.10;;;;;;5074015;28;20303;-80
2022/06/12 13:34:53;;;;;;;;;;;35.90;38.80;;;;;;5074036;28;19915;-81
2022/06/12 13:37:19;;;;;;;;;;;35.80;38.50;;;;;;5073978;28;19909;-81
2022/06/12 13:39:46;;;;;;;;;;;36.30;38.80;;;;;;5073434;28;19955;-81
2022/06/12 13:42:14;;;;;;;;;;;36.90;38.30;;;;;;5073830;28;19970;-80
2022/06/12 13:44:41;;;;;;;;;;;37.00;38.00;;;;;;5073831;28;19991;-82
2022/06/12 13:47:19;;;;;;;;;;;36.90;38.30;;;;;;5073784;28;19920;-80
2022/06/12 13:49:50;;;;;;;;;;;37.10;38.30;;;;;;5073872;28;19908;-81
2022/06/12 13:52:28;;;;;;;;;;;36.20;37.50;;;;;;5073717;28;19908;-83
2022/06/12 13:54:53;;;;;;;;;;;36.90;37.50;;;;;;5073913;28;19908;-80
2022/06/12 13:57:19;;;;;;;;;;;37.30;37.30;;;;;;5073943;28;19915;-81
2022/06/12 13:59:46;;;;;;;;;;;38.00;37.70;;;;;;5073553;28;20361;-80
2022/06/12 14:02:28;;;;;;;;;;;37.30;37.60;;;;;;5073613;28;19923;-79
2022/06/12 14:04:57;;;;;;;;;;;37.80;38.00;;;;;;5073688;28;19909;-79
2022/06/12 14:07:24;;;;;;;;;;;37.10;37.70;;;;;;5073574;28;19908;-79
2022/06/12 14:09:54;;;;;;;;;;;37.50;38.20;;;;;;5073516;28;19956;-79
2022/06/12 14:12:20;;;;;;;;;;;37.20;38.20;;;;;;5073608;28;20342;-79
2022/06/12 14:14:47;;;;;;;;;;;37.00;38.10;;;;;;5073651;28;19988;-79
2022/06/12 14:17:21;;;;;;;;;;;36.70;38.40;;;;;;5073532;28;19909;-79
2022/06/12 14:19:59;;;;;;;;;;;36.70;38.30;;;;;;5073467;28;19948;-80
2022/06/12 14:22:25;;;;;;;;;;;36.50;38.40;;;;;;5073434;28;19931;-80
2022/06/12 14:25:02;;;;;;;;;;;36.40;37.80;;;;;;5073402;28;19908;-80
2022/06/12 14:27:38;;;;;;;;;;;35.50;38.40;;;;;;5073473;28;19908;-81
2022/06/12 14:30:05;;;;;;;;;;;36.50;38.20;;;;;;5073374;28;20334;-78
2022/06/12 14:32:42;;;;;;;;;;;36.50;38.70;;;;;;5073346;28;20365;-81
2022/06/12 14:35:07;;;;;;;;;;;37.40;38.40;;;;;;5071851;28;19995;-80
2022/06/12 14:37:35;;;;;;;;;;;37.30;38.00;;;;;;5073215;28;19962;-79
2022/06/12 14:40:19;;;;;;;;;;;37.80;38.80;;;;;;5073279;28;20334;-80
2022/06/12 14:42:44;;;;;;;;;;;38.20;38.20;;;;;;5072316;28;19936;-80
2022/06/12 14:45:14;;;;;;;;;;;38.40;39.00;;;;;;5073438;28;20280;-78
2022/06/12 14:47:39;;;;;;;;;;;38.80;38.70;;;;;;5073385;28;20428;-79